Time;durP1;ratioP1;P1;durP2;ratioP2;P2;SDS_P1;SDS_P2;PMS_P1;PMS_P2;Temp;Humidity;BMP_temperature;BMP_pressure;BME280_temperature;BME280_humidity;BME280_pressure;Samples;Min_cycle;Max_cycle;Signal;HPM_P1;HPM_P2
2022/03/07 00:00:49;;;;;;;;;;;;;;;0.30;86.82;98631.40;1650438;85;21991;-81
2022/03/07 00:03:15;;;;;;;;;;;;;;;0.28;86.86;98625.88;1651503;85;25990;-82
2022/03/07 00:05:41;;;;;;;;;;;;;;;0.26;86.89;98627.66;1651767;85;24585;-82
2022/03/07 00:08:08;;;;;;;;;;;;;;;0.32;87.04;98625.78;1674559;84;20294;-82
2022/03/07 00:10:35;;;;;;;;;;;;;;;0.37;87.20;98632.09;1650720;85;24775;-82
2022/03/07 00:13:02;;;;;;;;;;;;;;;0.16;87.06;98634.77;1659075;85;22045;-82
2022/03/07 00:15:28;;;;;;;;;;;;;;;-0.03;86.88;98633.09;1653932;84;26078;-82
2022/03/07 00:17:54;;;;;;;;;;;;;;;-0.25;86.60;98632.34;1652606;85;24430;-82
2022/03/07 00:20:21;;;;;;;;;;;;;;;-0.39;86.39;98635.69;1649487;85;20172;-83
2022/03/07 00:22:47;;;;;;;;;;;;;;;-0.47;86.29;98643.13;1651278;85;24845;-83
2022/03/07 00:25:14;;;;;;;;;;;;;;;-0.56;86.22;98645.91;1652149;85;22054;-82
2022/03/07 00:27:40;;;;;;;;;;;;;;;-0.71;86.13;98642.36;1649740;85;26073;-82
2022/03/07 00:30:07;;;;;;;;;;;;;;;-0.82;86.04;98646.06;1654377;85;24457;-83
2022/03/07 00:32:33;;;;;;;;;;;;;;;-0.87;86.06;98644.41;1654058;85;20303;-82
2022/03/07 00:34:59;;;;;;;;;;;;;;;-0.79;86.26;98648.12;1656088;85;24876;-82
2022/03/07 00:37:26;;;;;;;;;;;;;;;-0.84;86.43;98642.23;1654386;84;21985;-82
2022/03/07 00:39:52;;;;;;;;;;;;;;;-0.90;86.53;98639.36;1641644;86;25495;-82
2022/03/07 00:42:18;;;;;;;;;;;;;;;-0.90;86.66;98644.49;1645729;86;20277;-82
2022/03/07 00:44:44;;;;;;;;;;;;;;;-0.92;86.76;98644.95;1642214;86;20241;-82
2022/03/07 00:47:10;;;;;;;;;;;;;;;-0.93;86.88;98640.69;1639535;86;24767;-82
2022/03/07 00:49:36;;;;;;;;;;;;;;;-0.92;87.00;98638.97;1649379;86;22073;-82
2022/03/07 00:52:02;;;;;;;;;;;;;;;-0.96;87.12;98636.06;1649498;86;25898;-82
2022/03/07 00:54:28;;;;;;;;;;;;;;;-1.03;87.14;98642.19;1647970;86;24489;-82
2022/03/07 00:56:54;;;;;;;;;;;;;;;-1.02;87.22;98639.59;1650242;86;20250;-82
2022/03/07 00:59:21;;;;;;;;;;;;;;;-0.94;87.43;98640.73;1651594;86;24736;-82
2022/03/07 01:01:47;;;;;;;;;;;;;;;-0.94;87.58;98642.02;1650735;86;22009;-82
2022/03/07 01:04:13;;;;;;;;;;;;;;;-0.97;87.71;98637.78;1652452;86;26032;-82
2022/03/07 01:06:39;;;;;;;;;;;;;;;-0.96;87.80;98641.20;1647752;86;24408;-82
2022/03/07 01:09:05;;;;;;;;;;;;;;;-1.05;87.80;98642.24;1651717;86;20481;-82
2022/03/07 01:11:31;;;;;;;;;;;;;;;-1.03;87.88;98642.19;1650650;85;24817;-82
2022/03/07 01:13:57;;;;;;;;;;;;;;;-1.08;87.91;98635.87;1653148;86;22023;-83
2022/03/07 01:16:23;;;;;;;;;;;;;;;-1.21;87.93;98617.75;1650918;86;26057;-82
2022/03/07 01:18:49;;;;;;;;;;;;;;;-1.11;88.03;98628.67;1652690;85;24503;-82
2022/03/07 01:21:15;;;;;;;;;;;;;;;-1.14;88.02;98635.14;1650609;86;20242;-83
2022/03/07 01:23:42;;;;;;;;;;;;;;;-1.12;88.08;98639.81;1652133;86;24697;-82
2022/03/07 01:26:08;;;;;;;;;;;;;;;-1.14;88.06;98635.14;1648572;86;22061;-82
2022/03/07 01:28:34;;;;;;;;;;;;;;;-1.13;88.11;98631.70;1684684;84;26048;-83
2022/03/07 01:31:01;;;;;;;;;;;;;;;-1.09;88.18;98630.78;1651178;85;24353;-82
2022/03/07 01:33:27;;;;;;;;;;;;;;;-1.03;88.29;98627.63;1651276;86;20453;-82
2022/03/07 01:35:53;;;;;;;;;;;;;;;-1.01;88.38;98625.89;1651160;86;24815;-82
2022/03/07 01:38:19;;;;;;;;;;;;;;;-1.07;88.33;98625.16;1652088;85;21893;-83
2022/03/07 01:40:45;;;;;;;;;;;;;;;-1.14;88.20;98623.58;1672156;85;26027;-82
2022/03/07 01:43:12;;;;;;;;;;;;;;;-1.29;87.97;98620.45;1670208;85;24490;-81
2022/03/07 01:45:41;;;;;;;;;;;;;;;-1.33;87.78;98623.13;1669184;85;20553;-81
2022/03/07 01:48:07;;;;;;;;;;;;;;;-1.30;87.77;98622.61;1671231;85;24775;-82
2022/03/07 01:50:34;;;;;;;;;;;;;;;-1.25;87.82;98622.52;1669885;85;21935;-82
2022/03/07 01:53:00;;;;;;;;;;;;;;;-1.22;87.87;98621.19;1665666;85;26050;-81
2022/03/07 01:55:26;;;;;;;;;;;;;;;-1.20;87.94;98625.02;1671512;85;24381;-81
2022/03/07 01:57:52;;;;;;;;;;;;;;;-1.12;88.09;98620.56;1664054;85;20301;-81
2022/03/07 02:00:20;;;;;;;;;;;;;;;-1.01;88.33;98619.47;1669559;85;24788;-81
2022/03/07 02:02:46;;;;;;;;;;;;;;;-0.96;88.50;98618.08;1698942;83;21820;-81
2022/03/07 02:05:12;;;;;;;;;;;;;;;-0.95;88.60;98618.06;1665665;85;26131;-81
2022/03/07 02:07:38;;;;;;;;;;;;;;;-1.00;88.61;98621.59;1667625;85;24392;-81
2022/03/07 02:10:06;;;;;;;;;;;;;;;-1.05;88.58;98622.14;1670686;85;20464;-81
2022/03/07 02:12:34;;;;;;;;;;;;;;;-0.98;88.70;98621.11;1665397;84;25573;-81
2022/03/07 02:15:00;;;;;;;;;;;;;;;-1.01;88.75;98619.47;1667515;84;22163;-82
2022/03/07 02:17:26;;;;;;;;;;;;;;;-1.02;88.78;98619.48;1669132;85;26059;-82
2022/03/07 02:19:52;;;;;;;;;;;;;;;-0.97;88.87;98612.53;1672304;85;24370;-82
2022/03/07 02:22:18;;;;;;;;;;;;;;;-0.96;88.94;98614.23;1670470;84;20250;-82
2022/03/07 02:24:44;;;;;;;;;;;;;;;-0.95;89.03;98619.78;1669241;85;24754;-82
2022/03/07 02:27:11;;;;;;;;;;;;;;;-0.91;89.11;98618.83;1668211;85;22027;-82
2022/03/07 02:29:38;;;;;;;;;;;;;;;-0.91;89.16;98618.83;1670139;85;25947;-81
2022/03/07 02:32:05;;;;;;;;;;;;;;;-0.93;89.17;98614.18;1661841;85;24499;-81
2022/03/07 02:34:31;;;;;;;;;;;;;;;-0.98;89.16;98608.27;1672898;84;20683;-81
2022/03/07 02:36:57;;;;;;;;;;;;;;;-0.99;89.13;98607.88;1670587;85;24726;-82
2022/03/07 02:39:25;;;;;;;;;;;;;;;-0.97;89.18;98601.82;1680610;84;22043;-80
2022/03/07 02:41:51;;;;;;;;;;;;;;;-0.97;89.23;98601.82;1681085;85;26068;-82
2022/03/07 02:44:17;;;;;;;;;;;;;;;-1.00;89.20;98604.47;1679023;84;20374;-81
2022/03/07 02:46:43;;;;;;;;;;;;;;;-0.97;89.25;98600.97;1681213;85;20311;-81
2022/03/07 02:49:09;;;;;;;;;;;;;;;-0.92;89.34;98597.43;1679346;85;24804;-80
2022/03/07 02:51:35;;;;;;;;;;;;;;;-0.90;89.40;98601.27;1680106;84;22057;-82
2022/03/07 02:54:02;;;;;;;;;;;;;;;-0.92;89.38;98600.44;1673506;85;26129;-82
2022/03/07 02:56:28;;;;;;;;;;;;;;;-1.00;89.29;98594.63;1680352;85;24427;-82
2022/03/07 02:58:54;;;;;;;;;;;;;;;-1.04;89.21;98600.72;1679779;85;20257;-82
2022/03/07 03:01:20;;;;;;;;;;;;;;;-1.05;89.16;98599.88;1673321;85;24726;-82
2022/03/07 03:03:46;;;;;;;;;;;;;;;-1.07;89.13;98596.91;1673623;83;21912;-82
2022/03/07 03:06:12;;;;;;;;;;;;;;;-1.11;89.08;98595.30;1661373;85;25922;-82
2022/03/07 03:08:39;;;;;;;;;;;;;;;-1.21;88.94;98590.80;1675587;83;24446;-82
2022/03/07 03:11:05;;;;;;;;;;;;;;;-1.36;88.69;98588.08;1676009;85;20229;-82
2022/03/07 03:13:31;;;;;;;;;;;;;;;-1.41;88.54;98591.61;1677758;84;24827;-82
2022/03/07 03:15:57;;;;;;;;;;;;;;;-1.49;88.34;98593.49;1675566;85;21979;-83
2022/03/07 03:18:24;;;;;;;;;;;;;;;-1.55;88.18;98591.89;1675395;85;25986;-82
2022/03/07 03:20:51;;;;;;;;;;;;;;;-1.60;88.04;98587.28;1697110;83;24332;-82
2022/03/07 03:23:18;;;;;;;;;;;;;;;-1.60;87.98;98587.72;1681597;84;20602;-82
2022/03/07 03:25:44;;;;;;;;;;;;;;;-1.59;87.99;98586.41;1677341;84;24912;-82
2022/03/07 03:28:11;;;;;;;;;;;;;;;-1.56;88.04;98586.78;1675829;85;22040;-82
2022/03/07 03:30:37;;;;;;;;;;;;;;;-1.60;88.02;98587.72;1677359;85;26061;-82
2022/03/07 03:33:04;;;;;;;;;;;;;;;-1.64;87.96;98588.66;1671099;85;24519;-82
2022/03/07 03:35:30;;;;;;;;;;;;;;;-1.69;88.00;98573.33;1673446;85;20345;-82
2022/03/07 03:37:56;;;;;;;;;;;;;;;-1.64;88.08;98578.40;1675160;85;24788;-82
2022/03/07 03:40:23;;;;;;;;;;;;;;;-1.54;88.16;98592.30;1677866;84;22036;-82
2022/03/07 03:42:50;;;;;;;;;;;;;;;-1.51;88.25;98588.81;1684140;84;26765;-82
2022/03/07 03:45:16;;;;;;;;;;;;;;;-1.50;88.32;98591.36;1675678;85;24586;-82
2022/03/07 03:47:42;;;;;;;;;;;;;;;-1.54;88.35;98591.02;1677992;85;20444;-82
2022/03/07 03:50:15;;;;;;;;;;;;;;;-1.49;88.40;98585.80;1672502;85;24821;-82
2022/03/07 03:52:42;;;;;;;;;;;;;;;-1.54;88.40;98584.61;1668759;85;22085;-82
2022/03/07 03:55:10;;;;;;;;;;;;;;;-1.62;88.30;98577.91;1671486;85;26051;-82
2022/03/07 03:57:37;;;;;;;;;;;;;;;-1.74;88.13;98577.70;1685632;84;24598;-81
2022/03/07 04:00:05;;;;;;;;;;;;;;;-1.85;87.95;98579.61;1676023;85;20478;-81
2022/03/07 04:02:31;;;;;;;;;;;;;;;-1.91;87.79;98578.47;1674668;84;24780;-82
2022/03/07 04:04:58;;;;;;;;;;;;;;;-1.93;87.71;98577.64;1678525;85;22020;-82
2022/03/07 04:07:24;;;;;;;;;;;;;;;-1.95;87.64;98579.38;1679753;85;25573;-82
2022/03/07 04:09:50;;;;;;;;;;;;;;;-2.02;87.53;98574.81;1676595;84;24511;-82
2022/03/07 04:12:16;;;;;;;;;;;;;;;-2.05;87.44;98574.00;1675314;83;21507;-82
2022/03/07 04:14:42;;;;;;;;;;;;;;;-2.01;87.43;98579.47;1677441;85;24861;-83
2022/03/07 04:17:09;;;;;;;;;;;;;;;-2.02;87.44;98579.09;1702149;83;21861;-82
2022/03/07 04:19:35;;;;;;;;;;;;;;;-2.04;87.41;98582.11;1676848;85;25938;-82
2022/03/07 04:22:01;;;;;;;;;;;;;;;-2.04;87.40;98576.55;1677670;85;24451;-81
2022/03/07 04:24:30;;;;;;;;;;;;;;;-2.03;87.40;98581.23;1675087;85;20351;-82
2022/03/07 04:26:55;;;;;;;;;;;;;;;-1.98;87.46;98569.19;1672511;84;24942;-82
2022/03/07 04:29:21;;;;;;;;;;;;;;;-1.94;87.51;98574.66;1681462;84;22698;-83
2022/03/07 04:31:47;;;;;;;;;;;;;;;-1.92;87.57;98571.64;1677301;84;26129;-82
2022/03/07 04:34:13;;;;;;;;;;;;;;;-1.92;87.58;98575.48;1678372;85;25539;-82
2022/03/07 04:36:40;;;;;;;;;;;;;;;-1.87;87.65;98583.95;1676280;84;20204;-81
2022/03/07 04:39:08;;;;;;;;;;;;;;;-1.86;87.69;98580.08;1693132;83;24794;-82
2022/03/07 04:41:35;;;;;;;;;;;;;;;-1.85;87.71;98582.17;1651878;86;22111;-81
2022/03/07 04:44:01;;;;;;;;;;;;;;;-1.80;87.76;98576.56;1652387;86;26147;-81
2022/03/07 04:46:28;;;;;;;;;;;;;;;-1.71;87.90;98577.66;1649610;86;20316;-81
2022/03/07 04:48:54;;;;;;;;;;;;;;;-1.62;88.06;98576.19;1650631;85;20282;-81
2022/03/07 04:51:20;;;;;;;;;;;;;;;-1.64;88.04;98582.24;1650423;86;24795;-81
2022/03/07 04:53:46;;;;;;;;;;;;;;;-1.63;88.04;98581.34;1651408;86;22002;-81
2022/03/07 04:56:12;;;;;;;;;;;;;;;-1.58;88.09;98590.64;1649403;86;25989;-82
2022/03/07 04:58:38;;;;;;;;;;;;;;;-1.61;88.04;98579.17;1650486;86;24392;-82
2022/03/07 05:01:05;;;;;;;;;;;;;;;-1.70;87.72;98574.22;1683563;84;20581;-82
2022/03/07 05:03:31;;;;;;;;;;;;;;;-1.72;87.47;98574.25;1678452;84;24695;-82
2022/03/07 05:05:57;;;;;;;;;;;;;;;-1.68;87.33;98575.02;1650574;86;20834;-82
2022/03/07 05:08:23;;;;;;;;;;;;;;;-1.64;87.21;98576.68;1652604;86;26159;-81
2022/03/07 05:10:49;;;;;;;;;;;;;;;-1.62;87.07;98576.19;1651928;86;24984;-81
2022/03/07 05:13:15;;;;;;;;;;;;;;;-1.65;86.89;98577.98;1649684;86;20428;-81
2022/03/07 05:15:42;;;;;;;;;;;;;;;-1.66;86.75;98580.98;1643133;86;24816;-81
2022/03/07 05:18:08;;;;;;;;;;;;;;;-1.70;86.54;98581.48;1645937;86;22052;-80
2022/03/07 05:20:34;;;;;;;;;;;;;;;-1.69;86.35;98586.15;1635797;86;26045;-81
2022/03/07 05:23:00;;;;;;;;;;;;;;;-1.66;86.26;98582.27;1650982;86;24517;-81
2022/03/07 05:25:26;;;;;;;;;;;;;;;-1.68;86.11;98584.00;1651607;86;20224;-81
2022/03/07 05:27:53;;;;;;;;;;;;;;;-1.66;86.01;98582.27;1651021;85;25657;-81
2022/03/07 05:30:21;;;;;;;;;;;;;;;-1.61;85.96;98583.02;1646931;86;22824;-81
2022/03/07 05:32:50;;;;;;;;;;;;;;;-1.65;85.81;98585.24;1649440;85;26075;-81
2022/03/07 05:35:16;;;;;;;;;;;;;;;-1.69;85.64;98585.72;1649647;86;24503;-82
2022/03/07 05:37:42;;;;;;;;;;;;;;;-1.72;85.44;98595.20;1651577;86;20282;-82
2022/03/07 05:40:10;;;;;;;;;;;;;;;-1.77;85.25;98602.14;1651167;85;24749;-82
2022/03/07 05:42:36;;;;;;;;;;;;;;;-1.77;85.13;98599.57;1650872;86;21591;-81
2022/03/07 05:45:04;;;;;;;;;;;;;;;-1.74;85.04;98606.77;1648787;86;26063;-81
2022/03/07 05:47:30;;;;;;;;;;;;;;;-1.74;85.00;98604.63;1649814;86;24505;-81
2022/03/07 05:49:56;;;;;;;;;;;;;;;-1.73;84.92;98612.74;1651019;86;20563;-81
2022/03/07 05:52:22;;;;;;;;;;;;;;;-1.73;84.84;98617.88;1652274;86;24800;-81
2022/03/07 05:54:48;;;;;;;;;;;;;;;-1.79;84.73;98614.13;1650627;86;22042;-81
2022/03/07 05:57:14;;;;;;;;;;;;;;;-1.79;84.66;98616.70;1650978;86;26033;-81
2022/03/07 05:59:40;;;;;;;;;;;;;;;-1.82;84.54;98613.77;1649633;86;24385;-81
2022/03/07 06:02:06;;;;;;;;;;;;;;;-1.78;84.52;98623.52;1650200;86;20224;-81
2022/03/07 06:04:33;;;;;;;;;;;;;;;-1.77;84.53;98620.94;1648749;86;24762;-81
2022/03/07 06:06:59;;;;;;;;;;;;;;;-1.72;84.52;98624.70;1651099;86;21982;-82
2022/03/07 06:09:25;;;;;;;;;;;;;;;-1.72;84.52;98624.27;1649248;86;25980;-82
2022/03/07 06:11:51;;;;;;;;;;;;;;;-1.66;84.55;98620.75;1652364;85;24431;-82
2022/03/07 06:14:17;;;;;;;;;;;;;;;-1.59;84.63;98621.48;1653127;86;20377;-81
2022/03/07 06:16:43;;;;;;;;;;;;;;;-1.55;84.66;98630.81;1650199;86;25447;-82
2022/03/07 06:19:15;;;;;;;;;;;;;;;-1.52;84.67;98632.02;1649882;86;21844;-82
2022/03/07 06:21:41;;;;;;;;;;;;;;;-1.46;84.74;98632.77;1647769;86;26077;-82
2022/03/07 06:24:08;;;;;;;;;;;;;;;-1.35;84.85;98635.13;1649715;86;20497;-82
2022/03/07 06:26:35;;;;;;;;;;;;;;;-1.24;85.02;98633.63;1651622;86;20549;-82
2022/03/07 06:29:02;;;;;;;;;;;;;;;-1.22;85.06;98639.59;1650196;86;24768;-81
2022/03/07 06:31:29;;;;;;;;;;;;;;;-1.23;85.05;98634.05;1651832;86;22270;-81
2022/03/07 06:33:55;;;;;;;;;;;;;;;-1.18;85.06;98633.52;1650031;86;26054;-82
2022/03/07 06:36:21;;;;;;;;;;;;;;;-1.17;85.03;98633.93;1651728;86;24479;-81
2022/03/07 06:38:47;;;;;;;;;;;;;;;-1.22;84.89;98637.88;1653177;86;20310;-82
2022/03/07 06:41:13;;;;;;;;;;;;;;;-1.24;84.75;98643.47;1681342;85;25490;-82
2022/03/07 06:43:40;;;;;;;;;;;;;;;-1.16;84.73;98635.19;1682532;85;22024;-82
2022/03/07 06:46:06;;;;;;;;;;;;;;;-1.09;84.77;98639.77;1684304;85;25897;-82
2022/03/07 06:48:36;;;;;;;;;;;;;;;-0.99;84.83;98648.98;1715149;81;20273;-82
2022/03/07 06:51:02;;;;;;;;;;;;;;;-0.98;84.83;98635.23;1715243;81;20491;-82
2022/03/07 06:53:29;;;;;;;;;;;;;;;-1.00;84.75;98639.14;1685570;85;24634;-82
2022/03/07 06:55:55;;;;;;;;;;;;;;;-1.03;84.64;98641.75;1681199;85;22198;-82
2022/03/07 06:58:21;;;;;;;;;;;;;;;-1.01;84.58;98645.58;1685563;85;26025;-82
2022/03/07 07:00:48;;;;;;;;;;;;;;;-0.90;84.64;98645.78;1684279;85;24415;-82
2022/03/07 07:03:14;;;;;;;;;;;;;;;-0.80;84.71;98641.28;1685147;85;20503;-82
2022/03/07 07:05:40;;;;;;;;;;;;;;;-0.67;84.85;98641.88;1687650;85;24725;-82
2022/03/07 07:08:06;;;;;;;;;;;;;;;-0.64;84.85;98646.50;1686615;85;21968;-82
2022/03/07 07:10:32;;;;;;;;;;;;;;;-0.55;84.86;98636.04;1683540;85;26087;-82
2022/03/07 07:12:58;;;;;;;;;;;;;;;-0.48;84.88;98636.28;1685650;85;20298;-82
2022/03/07 07:15:24;;;;;;;;;;;;;;;-0.56;84.70;98643.34;1686433;84;20327;-82
2022/03/07 07:17:50;;;;;;;;;;;;;;;-0.52;84.66;98650.09;1687146;85;24848;-82
2022/03/07 07:20:16;;;;;;;;;;;;;;;-0.56;84.50;98648.91;1684655;85;21992;-82
2022/03/07 07:22:42;;;;;;;;;;;;;;;-0.66;84.20;98655.14;1686330;85;26142;-82
2022/03/07 07:25:09;;;;;;;;;;;;;;;-0.73;83.95;98649.71;1684372;85;24559;-82
2022/03/07 07:27:35;;;;;;;;;;;;;;;-0.68;83.85;98648.73;1685805;85;20219;-82
2022/03/07 07:30:03;;;;;;;;;;;;;;;-0.62;83.83;98649.05;1683825;85;24967;-82
2022/03/07 07:32:29;;;;;;;;;;;;;;;-0.57;83.79;98649.79;1685645;85;22135;-82
2022/03/07 07:34:56;;;;;;;;;;;;;;;-0.47;83.83;98653.84;1684567;84;26039;-82
2022/03/07 07:37:22;;;;;;;;;;;;;;;-0.40;83.91;98645.13;1685718;85;24427;-82
2022/03/07 07:39:49;;;;;;;;;;;;;;;-0.35;83.91;98643.29;1686597;83;20403;-82
2022/03/07 07:42:15;;;;;;;;;;;;;;;-0.29;83.94;98645.72;1684920;84;24820;-82
2022/03/07 07:44:43;;;;;;;;;;;;;;;-0.20;84.01;98651.08;1683750;84;21932;-81
2022/03/07 07:47:09;;;;;;;;;;;;;;;-0.18;83.95;98655.32;1685655;84;25436;-82
2022/03/07 07:49:36;;;;;;;;;;;;;;;-0.18;83.84;98649.33;1681246;83;24487;-82
2022/03/07 07:52:02;;;;;;;;;;;;;;;-0.14;83.77;98657.37;1686145;84;20224;-82
2022/03/07 07:54:31;;;;;;;;;;;;;;;-0.13;83.69;98649.63;1685123;84;24736;-81
2022/03/07 07:56:58;;;;;;;;;;;;;;;-0.16;83.57;98652.25;1691428;83;21955;-82
2022/03/07 07:59:24;;;;;;;;;;;;;;;-0.19;83.39;98652.34;1689393;83;25848;-81
2022/03/07 08:01:50;;;;;;;;;;;;;;;-0.24;83.23;98652.89;1685339;83;24101;-81
2022/03/07 08:04:16;;;;;;;;;;;;;;;-0.29;83.05;98650.02;1686660;84;20252;-81
2022/03/07 08:06:42;;;;;;;;;;;;;;;-0.30;82.89;98653.46;1683401;84;24722;-81
2022/03/07 08:09:08;;;;;;;;;;;;;;;-0.25;82.88;98649.05;1684422;84;21933;-81
2022/03/07 08:11:34;;;;;;;;;;;;;;;-0.17;82.91;98650.59;1680783;84;26050;-82
2022/03/07 08:14:00;;;;;;;;;;;;;;;-0.09;82.98;98643.95;1686533;83;24473;-82
2022/03/07 08:16:26;;;;;;;;;;;;;;;0.00;83.09;98646.33;1689105;83;20260;-82
2022/03/07 08:18:52;;;;;;;;;;;;;;;0.12;83.19;98651.59;1678506;83;24813;-82
2022/03/07 08:21:25;;;;;;;;;;;;;;;0.26;83.36;98638.80;1689737;83;21897;-81
2022/03/07 08:23:47;;;;;;;;;;;;;;;0.27;83.32;98639.18;1686759;84;26550;-81
2022/03/07 08:26:13;;;;;;;;;;;;;;;0.27;83.17;98634.50;1686831;84;24696;-81
2022/03/07 08:28:39;;;;;;;;;;;;;;;0.25;83.03;98638.39;1689470;84;20202;-81
2022/03/07 08:31:06;;;;;;;;;;;;;;;0.23;82.88;98637.58;1687777;83;24815;-81
2022/03/07 08:33:32;;;;;;;;;;;;;;;0.30;82.83;98645.99;1689092;83;21933;-81
2022/03/07 08:35:58;;;;;;;;;;;;;;;0.31;82.74;98638.68;1683796;84;26023;-81
2022/03/07 08:38:24;;;;;;;;;;;;;;;0.31;82.60;98642.10;1685725;83;24527;-81
2022/03/07 08:40:51;;;;;;;;;;;;;;;0.37;82.52;98641.95;1685111;84;20570;-81
2022/03/07 08:43:17;;;;;;;;;;;;;;;0.39;82.40;98641.45;1688131;84;24838;-81
2022/03/07 08:45:43;;;;;;;;;;;;;;;0.37;82.19;98644.96;1681024;84;22019;-81
2022/03/07 08:48:09;;;;;;;;;;;;;;;0.44;82.10;98643.89;1684616;84;26069;-82
2022/03/07 08:50:35;;;;;;;;;;;;;;;0.53;82.08;98639.81;1682429;84;24417;-82
2022/03/07 08:53:01;;;;;;;;;;;;;;;0.65;82.11;98639.94;1688588;84;20788;-82
2022/03/07 08:55:28;;;;;;;;;;;;;;;0.74;82.10;98643.54;1684056;85;24976;-83
2022/03/07 08:57:54;;;;;;;;;;;;;;;0.80;82.01;98642.94;1683768;85;22050;-82
2022/03/07 09:00:20;;;;;;;;;;;;;;;0.83;81.92;98635.55;1683643;85;25983;-83
2022/03/07 09:02:46;;;;;;;;;;;;;;;0.80;81.67;98636.94;1682793;84;24398;-83
2022/03/07 09:05:12;;;;;;;;;;;;;;;0.82;81.50;98630.84;1687194;85;20484;-83
2022/03/07 09:07:38;;;;;;;;;;;;;;;0.79;81.22;98628.80;1689165;84;24722;-83
2022/03/07 09:10:04;;;;;;;;;;;;;;;0.86;81.04;98634.20;1685418;85;22082;-83
2022/03/07 09:12:30;;;;;;;;;;;;;;;0.95;80.94;98629.22;1686175;85;26003;-83
2022/03/07 09:14:57;;;;;;;;;;;;;;;0.93;80.72;98631.83;1717145;82;24323;-82
2022/03/07 09:17:24;;;;;;;;;;;;;;;0.97;80.49;98633.45;1688357;85;20288;-82
2022/03/07 09:19:51;;;;;;;;;;;;;;;1.02;80.36;98622.56;1683898;85;24785;-82
2022/03/07 09:22:17;;;;;;;;;;;;;;;1.01;80.14;98632.47;1686930;85;22062;-82
2022/03/07 09:24:43;;;;;;;;;;;;;;;0.90;79.74;98634.50;1686934;85;26154;-82
2022/03/07 09:27:09;;;;;;;;;;;;;;;0.89;79.47;98637.96;1684632;85;24377;-81
2022/03/07 09:29:36;;;;;;;;;;;;;;;0.92;79.25;98643.48;1682172;85;20591;-82
2022/03/07 09:32:04;;;;;;;;;;;;;;;0.89;79.01;98642.27;1687587;84;24807;-82
2022/03/07 09:34:30;;;;;;;;;;;;;;;0.86;78.72;98644.50;1687017;85;22837;-82
2022/03/07 09:36:56;;;;;;;;;;;;;;;0.88;78.52;98641.86;1687233;85;21090;-82
2022/03/07 09:39:22;;;;;;;;;;;;;;;0.84;78.30;98639.83;1685961;84;24503;-82
2022/03/07 09:41:48;;;;;;;;;;;;;;;0.75;78.00;98632.36;1684631;83;20218;-82
2022/03/07 09:44:14;;;;;;;;;;;;;;;0.67;77.66;98636.86;1718318;82;25542;-81
2022/03/07 09:46:42;;;;;;;;;;;;;;;0.66;77.40;98637.73;1690399;83;20756;-82
2022/03/07 09:49:08;;;;;;;;;;;;;;;0.76;77.31;98636.63;1686685;83;26040;-82
2022/03/07 09:51:35;;;;;;;;;;;;;;;0.89;77.33;98626.37;1690296;83;24442;-82
2022/03/07 09:54:01;;;;;;;;;;;;;;;1.04;77.41;98616.06;1685707;84;20242;-82
2022/03/07 09:56:27;;;;;;;;;;;;;;;1.22;77.59;98615.53;1723704;81;25171;-82
2022/03/07 09:58:53;;;;;;;;;;;;;;;1.40;77.75;98615.44;1691522;84;22033;-82
2022/03/07 10:01:19;;;;;;;;;;;;;;;1.44;77.61;98615.73;1686590;84;26243;-82
2022/03/07 10:03:47;;;;;;;;;;;;;;;1.45;77.42;98614.85;1687251;83;20243;-82
2022/03/07 10:06:15;;;;;;;;;;;;;;;1.44;77.15;98615.73;1682477;84;20287;-82
2022/03/07 10:08:43;;;;;;;;;;;;;;;1.44;76.87;98613.16;1689139;84;24759;-83
2022/03/07 10:11:09;;;;;;;;;;;;;;;1.37;76.56;98618.09;1695729;82;22079;-83
2022/03/07 10:13:35;;;;;;;;;;;;;;;1.33;76.22;98622.95;1686918;84;26072;-83
2022/03/07 10:16:03;;;;;;;;;;;;;;;1.41;76.06;98615.84;1685495;84;24383;-83
2022/03/07 10:18:31;;;;;;;;;;;;;;;1.51;75.98;98614.67;1718380;82;20293;-83
2022/03/07 10:20:59;;;;;;;;;;;;;;;1.56;75.88;98618.80;1691967;84;24762;-83
2022/03/07 10:23:27;;;;;;;;;;;;;;;1.55;75.68;98613.23;1689145;83;22937;-83
2022/03/07 10:26:06;;;;;;;;;;;;;;;1.46;75.34;98617.39;1685133;84;27136;-85
2022/03/07 10:28:33;;;;;;;;;;;;;;;1.37;74.97;98618.94;1682969;84;24525;-83
2022/03/07 10:30:59;;;;;;;;;;;;;;;1.35;74.63;98617.31;1688034;84;20559;-83
2022/03/07 10:33:26;;;;;;;;;;;;;;;1.38;74.40;98609.03;1686008;84;24805;-84
2022/03/07 10:35:54;;;;;;;;;;;;;;;1.40;74.09;98606.41;1682350;83;22118;-84
2022/03/07 10:38:22;;;;;;;;;;;;;;;1.45;73.81;98596.80;1682926;84;26631;-84
2022/03/07 10:40:52;;;;;;;;;;;;;;;1.49;73.60;98598.39;1681950;84;24416;-84
2022/03/07 10:43:19;;;;;;;;;;;;;;;1.53;73.35;98599.97;1688061;84;20569;-83
2022/03/07 10:45:46;;;;;;;;;;;;;;;1.49;72.98;98610.84;1689479;84;24824;-84
2022/03/07 10:48:13;;;;;;;;;;;;;;;1.45;72.60;98605.83;1689487;84;22196;-84
2022/03/07 10:50:39;;;;;;;;;;;;;;;1.50;72.35;98612.98;1690715;84;26606;-87
2022/03/07 10:53:06;;;;;;;;;;;;;;;1.46;72.05;98603.21;1689622;84;24543;-86
2022/03/07 10:55:33;;;;;;;;;;;;;;;1.48;71.81;98610.44;1687589;84;20460;-86
2022/03/07 10:58:12;;;;;;;;;;;;;;;1.59;71.75;98608.37;1689633;84;24831;-86
2022/03/07 11:00:52;;;;;;;;;;;;;;;1.72;71.76;98604.97;1690750;84;21975;-86
2022/03/07 11:03:20;;;;;;;;;;;;;;;1.75;71.63;98608.73;1688463;84;26090;-85
2022/03/07 11:05:46;;;;;;;;;;;;;;;1.62;71.26;98603.58;1691453;84;24611;-85
2022/03/07 11:08:15;;;;;;;;;;;;;;;1.55;70.93;98612.38;1691307;84;20477;-85
2022/03/07 11:10:45;;;;;;;;;;;;;;;1.47;70.52;98609.22;1691608;84;25584;-85
2022/03/07 11:13:12;;;;;;;;;;;;;;;1.51;70.32;98600.48;1687118;84;21960;-85
2022/03/07 11:15:39;;;;;;;;;;;;;;;1.57;70.21;98605.02;1690131;84;26068;-84
2022/03/07 11:18:08;;;;;;;;;;;;;;;1.67;70.16;98599.11;1690083;84;24194;-85
2022/03/07 11:20:37;;;;;;;;;;;;;;;1.74;70.12;98598.48;1686562;84;20192;-82
2022/03/07 11:23:03;;;;;;;;;;;;;;;1.85;70.14;98608.02;1691387;84;24764;-83
2022/03/07 11:25:29;;;;;;;;;;;;;;;1.84;70.02;98609.75;1689699;84;21959;-83
2022/03/07 11:27:55;;;;;;;;;;;;;;;1.79;69.78;98609.49;1673420;84;26044;-83
2022/03/07 11:30:23;;;;;;;;;;;;;;;1.81;69.65;98602.53;1681893;84;24559;-83
2022/03/07 11:32:50;;;;;;;;;;;;;;;1.87;69.55;98604.47;1679263;83;20251;-84
2022/03/07 11:35:16;;;;;;;;;;;;;;;1.97;69.51;98592.95;1683335;83;24917;-83
2022/03/07 11:37:42;;;;;;;;;;;;;;;2.02;69.43;98590.22;1674998;84;21920;-83
2022/03/07 11:40:19;;;;;;;;;;;;;;;2.00;69.22;98593.31;1678811;83;25970;-83
2022/03/07 11:42:45;;;;;;;;;;;;;;;1.97;68.93;98598.12;1662743;84;24440;-83
2022/03/07 11:45:18;;;;;;;;;;;;;;;1.99;68.72;98595.05;1675964;84;20315;-83
2022/03/07 11:47:46;;;;;;;;;;;;;;;2.01;68.57;98593.27;1669867;84;24260;-83
2022/03/07 11:50:15;;;;;;;;;;;;;;;2.04;68.43;98588.00;1669391;84;22057;-83
2022/03/07 11:52:41;;;;;;;;;;;;;;;2.06;68.26;98599.56;1674295;83;26069;-83
2022/03/07 11:55:09;;;;;;;;;;;;;;;2.06;68.14;98587.95;1672336;84;24424;-84
2022/03/07 11:57:36;;;;;;;;;;;;;;;2.11;68.00;98586.06;1676903;83;20290;-83
2022/03/07 12:00:13;;;;;;;;;;;;;;;2.24;68.02;98590.34;1669559;84;25808;-83
2022/03/07 12:02:40;;;;;;;;;;;;;;;2.35;68.09;98588.23;1677963;84;21979;-84
2022/03/07 12:05:08;;;;;;;;;;;;;;;2.31;67.95;98590.53;1677896;84;26076;-85
2022/03/07 12:07:34;;;;;;;;;;;;;;;2.21;67.67;98582.27;1661797;84;24522;-84
2022/03/07 12:10:07;;;;;;;;;;;;;;;2.08;67.32;98583.12;1668222;84;20265;-84
2022/03/07 12:12:33;;;;;;;;;;;;;;;1.98;66.98;98574.44;1671733;84;24775;-84
2022/03/07 12:15:01;;;;;;;;;;;;;;;2.02;66.85;98574.28;1664620;84;21984;-84
2022/03/07 12:17:28;;;;;;;;;;;;;;;2.05;66.79;98566.91;1666718;84;26903;-85
2022/03/07 12:19:55;;;;;;;;;;;;;;;2.02;66.63;98568.28;1672681;83;24428;-86
2022/03/07 12:22:23;;;;;;;;;;;;;;;1.87;66.30;98566.21;1675151;83;20453;-86
2022/03/07 12:24:53;;;;;;;;;;;;;;;1.83;66.08;98560.32;1672074;83;25669;-85
2022/03/07 12:27:18;;;;;;;;;;;;;;;1.84;65.98;98556.85;1667539;84;22165;-85
2022/03/07 12:29:44;;;;;;;;;;;;;;;1.94;66.01;98550.48;1673996;83;26196;-85
2022/03/07 12:32:11;;;;;;;;;;;;;;;1.98;65.99;98545.61;1668273;84;24497;-86
2022/03/07 12:34:39;;;;;;;;;;;;;;;2.02;65.99;98551.06;1671248;83;20159;-85
2022/03/07 12:37:18;;;;;;;;;;;;;;;2.05;65.95;98547.10;1668830;84;24769;-84
2022/03/07 12:39:54;;;;;;;;;;;;;;;2.08;65.91;98547.42;1675280;84;22723;-84
2022/03/07 12:42:23;;;;;;;;;;;;;;;2.13;65.90;98544.72;1649582;84;26749;-84
2022/03/07 12:44:49;;;;;;;;;;;;;;;2.21;65.96;98543.98;1673170;83;24469;-83
2022/03/07 12:47:17;;;;;;;;;;;;;;;2.23;65.97;98541.77;1646343;86;20335;-83